Time;durP1;ratioP1;P1;durP2;ratioP2;P2;SDS_P1;SDS_P2;PMS_P1;PMS_P2;Temp;Humidity;BMP_temperature;BMP_pressure;BME280_temperature;BME280_humidity;BME280_pressure;Samples;Min_cycle;Max_cycle;Signal;HPM_P1;HPM_P2
2023/07/24 00:01:48;;;;;;;5.35;2.95;;;;;;;;;;5909459;28;20113;-70
2023/07/24 00:04:39;;;;;;;5.75;2.67;;;;;;;;;;5910859;28;20372;-69
2023/07/24 00:07:29;;;;;;;6.45;3.00;;;;;;;;;;5912451;28;20049;-70
2023/07/24 00:10:20;;;;;;;7.90;2.70;;;;;;;;;;5912122;28;20048;-68
2023/07/24 00:13:11;;;;;;;7.18;3.35;;;;;;;;;;5912081;28;20056;-69
2023/07/24 00:16:07;;;;;;;8.85;2.85;;;;;;;;;;5907397;28;20048;-70
2023/07/24 00:18:58;;;;;;;9.45;3.33;;;;;;;;;;5911021;28;20044;-69
2023/07/24 00:21:49;;;;;;;4.93;2.95;;;;;;;;;;5911739;28;20047;-69
2023/07/24 00:24:40;;;;;;;5.60;3.00;;;;;;;;;;5911371;28;20047;-68
2023/07/24 00:27:31;;;;;;;6.32;3.40;;;;;;;;;;5911809;28;20044;-69
2023/07/24 00:30:22;;;;;;;5.50;3.17;;;;;;;;;;5911778;28;20521;-68
2023/07/24 00:33:12;;;;;;;5.13;2.50;;;;;;;;;;5911485;28;20332;-68
2023/07/24 00:36:03;;;;;;;4.55;2.60;;;;;;;;;;5911627;28;20411;-69
2023/07/24 00:38:54;;;;;;;4.55;2.58;;;;;;;;;;5911919;28;20044;-69
2023/07/24 00:41:45;;;;;;;5.18;3.00;;;;;;;;;;5911507;28;20522;-68
2023/07/24 00:44:37;;;;;;;6.13;2.83;;;;;;;;;;5911391;28;20048;-69
2023/07/24 00:47:29;;;;;;;4.93;2.65;;;;;;;;;;5910646;28;20045;-70
2023/07/24 00:50:20;;;;;;;5.40;2.47;;;;;;;;;;5911477;28;20572;-69
2023/07/24 00:53:12;;;;;;;6.70;2.80;;;;;;;;;;5911418;28;20051;-68
2023/07/24 00:56:04;;;;;;;11.15;3.33;;;;;;;;;;5911334;28;20039;-68
2023/07/24 00:58:56;;;;;;;3.58;2.20;;;;;;;;;;5911924;28;20045;-69
2023/07/24 01:01:47;;;;;;;6.55;2.65;;;;;;;;;;5911101;28;20049;-69
2023/07/24 01:04:38;;;;;;;9.15;2.97;;;;;;;;;;5911226;28;20487;-69
2023/07/24 01:07:30;;;;;;;6.30;2.50;;;;;;;;;;5911169;28;20041;-69
2023/07/24 01:10:20;;;;;;;3.97;2.58;;;;;;;;;;5909746;28;20052;-68
2023/07/24 01:13:18;;;;;;;4.20;2.40;;;;;;;;;;5909610;28;20127;-68
2023/07/24 01:16:14;;;;;;;5.72;2.58;;;;;;;;;;5909721;28;20048;-69
2023/07/24 01:19:15;;;;;;;6.72;2.60;;;;;;;;;;5911066;28;20150;-68
2023/07/24 01:22:45;;;;;;;5.28;3.22;;;;;;;;;;5911208;28;20468;-69
2023/07/24 01:25:37;;;;;;;4.22;2.58;;;;;;;;;;5887676;28;20041;-69
2023/07/24 01:28:29;;;;;;;5.00;2.60;;;;;;;;;;5909693;28;20041;-69
2023/07/24 01:31:19;;;;;;;6.88;3.53;;;;;;;;;;5911075;28;20053;-69
2023/07/24 01:34:11;;;;;;;7.20;2.65;;;;;;;;;;5910822;28;20048;-70
2023/07/24 01:37:02;;;;;;;5.82;2.63;;;;;;;;;;5911035;28;20048;-69
2023/07/24 01:39:55;;;;;;;5.53;2.92;;;;;;;;;;5909885;28;20051;-70
2023/07/24 01:42:46;;;;;;;4.45;2.83;;;;;;;;;;5909544;28;20047;-69
2023/07/24 01:45:37;;;;;;;4.03;2.50;;;;;;;;;;5909495;28;20067;-69
2023/07/24 01:48:27;;;;;;;5.20;2.85;;;;;;;;;;5910874;28;20436;-68
2023/07/24 01:51:18;;;;;;;5.05;2.70;;;;;;;;;;5910763;28;20048;-69
2023/07/24 01:54:09;;;;;;;5.65;3.25;;;;;;;;;;5910465;28;20413;-69
2023/07/24 01:57:00;;;;;;;5.97;2.55;;;;;;;;;;5911140;28;20052;-69
2023/07/24 01:59:51;;;;;;;4.95;2.67;;;;;;;;;;5914562;28;20048;-68
2023/07/24 02:02:42;;;;;;;7.18;3.42;;;;;;;;;;5913884;28;20513;-70
2023/07/24 02:05:32;;;;;;;6.45;3.10;;;;;;;;;;5915314;28;20040;-70
2023/07/24 02:08:23;;;;;;;5.63;2.80;;;;;;;;;;5914962;28;20048;-68
2023/07/24 02:11:18;;;;;;;11.73;2.97;;;;;;;;;;5914974;28;20056;-68
2023/07/24 02:14:08;;;;;;;4.07;2.42;;;;;;;;;;5913571;28;20044;-69
2023/07/24 02:16:59;;;;;;;10.15;2.67;;;;;;;;;;5915224;28;20090;-69
2023/07/24 02:19:50;;;;;;;7.80;2.83;;;;;;;;;;5914950;28;20048;-69
2023/07/24 02:22:41;;;;;;;6.53;3.45;;;;;;;;;;5913378;28;20127;-69
2023/07/24 02:25:32;;;;;;;5.32;2.95;;;;;;;;;;5913306;28;20041;-69
2023/07/24 02:28:22;;;;;;;6.32;2.85;;;;;;;;;;5914616;28;20055;-68
2023/07/24 02:31:13;;;;;;;11.93;3.88;;;;;;;;;;5914352;28;20526;-69
2023/07/24 02:34:04;;;;;;;4.70;2.75;;;;;;;;;;5914223;28;20045;-69
2023/07/24 02:36:55;;;;;;;7.07;3.50;;;;;;;;;;5914945;28;20131;-70
2023/07/24 02:39:46;;;;;;;6.53;3.20;;;;;;;;;;5913061;28;20055;-69
2023/07/24 02:42:37;;;;;;;5.82;2.88;;;;;;;;;;5914114;28;20135;-68
2023/07/24 02:45:27;;;;;;;6.68;2.95;;;;;;;;;;5914124;28;20398;-70
2023/07/24 02:48:18;;;;;;;5.53;2.85;;;;;;;;;;5914142;28;20052;-69
2023/07/24 02:51:09;;;;;;;5.47;3.10;;;;;;;;;;5912955;28;20186;-69
2023/07/24 02:54:00;;;;;;;6.47;3.13;;;;;;;;;;5913942;28;20521;-68
2023/07/24 02:56:51;;;;;;;5.13;3.10;;;;;;;;;;5895448;28;20044;-68
2023/07/24 02:59:42;;;;;;;5.60;3.55;;;;;;;;;;5913623;28;20040;-68
2023/07/24 03:02:32;;;;;;;7.80;3.20;;;;;;;;;;5913845;28;20360;-68
2023/07/24 03:05:23;;;;;;;6.30;2.83;;;;;;;;;;5913755;28;20044;-69
2023/07/24 03:08:14;;;;;;;6.70;2.88;;;;;;;;;;5913597;28;20045;-69
2023/07/24 03:11:06;;;;;;;5.85;3.42;;;;;;;;;;5912773;28;20052;-69
2023/07/24 03:13:56;;;;;;;5.85;2.80;;;;;;;;;;5911921;28;20052;-68
2023/07/24 03:16:47;;;;;;;4.93;3.05;;;;;;;;;;5911176;28;20041;-69
2023/07/24 03:19:38;;;;;;;6.65;3.20;;;;;;;;;;5911071;28;20529;-70
2023/07/24 03:22:29;;;;;;;4.85;2.95;;;;;;;;;;5910816;28;20045;-69
2023/07/24 03:25:19;;;;;;;7.85;3.10;;;;;;;;;;5910873;28;20052;-68
2023/07/24 03:28:10;;;;;;;8.63;3.00;;;;;;;;;;5911934;28;20475;-68
2023/07/24 03:31:01;;;;;;;4.80;2.97;;;;;;;;;;5913534;28;20383;-69
2023/07/24 03:33:52;;;;;;;11.00;3.33;;;;;;;;;;5913324;28;20048;-68
2023/07/24 03:36:42;;;;;;;9.80;3.38;;;;;;;;;;5912987;28;20051;-68
2023/07/24 03:39:33;;;;;;;6.20;3.40;;;;;;;;;;5913044;28;20040;-68
2023/07/24 03:42:30;;;;;;;5.78;2.60;;;;;;;;;;5912640;28;20044;-68
2023/07/24 03:45:21;;;;;;;6.25;3.10;;;;;;;;;;5912496;28;20052;-69
2023/07/24 03:48:12;;;;;;;14.93;3.80;;;;;;;;;;5911376;28;20044;-70
2023/07/24 03:51:03;;;;;;;5.43;2.90;;;;;;;;;;5912864;28;20125;-68
2023/07/24 03:53:53;;;;;;;5.68;3.30;;;;;;;;;;5913106;28;20047;-68
2023/07/24 03:56:44;;;;;;;5.88;3.40;;;;;;;;;;5912604;28;20040;-69
2023/07/24 03:59:36;;;;;;;8.52;2.80;;;;;;;;;;5912536;28;20044;-68
2023/07/24 04:02:27;;;;;;;15.48;3.90;;;;;;;;;;5912395;28;20037;-69
2023/07/24 04:05:17;;;;;;;6.15;2.83;;;;;;;;;;5912244;28;20036;-69
2023/07/24 04:08:09;;;;;;;5.07;2.55;;;;;;;;;;5912324;28;20093;-68
2023/07/24 04:10:59;;;;;;;11.35;3.80;;;;;;;;;;5912960;28;20052;-68
2023/07/24 04:13:50;;;;;;;5.15;2.92;;;;;;;;;;5912366;28;20060;-68
2023/07/24 04:16:41;;;;;;;5.63;3.13;;;;;;;;;;5912214;28;20040;-68
2023/07/24 04:19:32;;;;;;;5.97;3.28;;;;;;;;;;5912133;28;20127;-68
2023/07/24 04:22:23;;;;;;;5.93;3.35;;;;;;;;;;5912002;28;20055;-69
2023/07/24 04:25:14;;;;;;;8.63;3.53;;;;;;;;;;5911813;28;20357;-70
2023/07/24 04:28:05;;;;;;;13.38;3.70;;;;;;;;;;5911985;28;20483;-69
2023/07/24 04:31:01;;;;;;;8.02;3.22;;;;;;;;;;5912177;28;20040;-69
2023/07/24 04:33:52;;;;;;;6.68;3.45;;;;;;;;;;5911680;28;20133;-68
2023/07/24 04:36:43;;;;;;;11.48;3.67;;;;;;;;;;5911693;28;20494;-69
2023/07/24 04:39:34;;;;;;;10.20;3.63;;;;;;;;;;5911652;28;20047;-69
2023/07/24 04:42:25;;;;;;;7.32;3.50;;;;;;;;;;5911685;28;20041;-69
2023/07/24 04:45:15;;;;;;;6.05;3.65;;;;;;;;;;5911504;28;20044;-69
2023/07/24 04:48:06;;;;;;;8.05;3.53;;;;;;;;;;5911637;28;20055;-69
2023/07/24 04:50:57;;;;;;;6.50;3.40;;;;;;;;;;5912072;28;20076;-70
2023/07/24 04:53:48;;;;;;;10.98;3.38;;;;;;;;;;5911425;28;20147;-69
2023/07/24 04:56:39;;;;;;;5.75;3.10;;;;;;;;;;5911319;28;20040;-69
2023/07/24 04:59:30;;;;;;;5.78;3.30;;;;;;;;;;5911583;28;20546;-69
2023/07/24 05:02:21;;;;;;;8.27;3.90;;;;;;;;;;5911589;28;20050;-69
2023/07/24 05:05:12;;;;;;;6.93;3.58;;;;;;;;;;5911038;28;20047;-69
2023/07/24 05:08:03;;;;;;;8.88;3.38;;;;;;;;;;5911362;28;20040;-69
2023/07/24 05:10:58;;;;;;;10.30;4.18;;;;;;;;;;5911595;28;20071;-69
2023/07/24 05:13:49;;;;;;;8.77;3.85;;;;;;;;;;5909742;28;20051;-70
2023/07/24 05:16:40;;;;;;;5.78;3.15;;;;;;;;;;5911089;28;20037;-69
2023/07/24 05:19:31;;;;;;;8.65;3.30;;;;;;;;;;5911031;28;20101;-71
2023/07/24 05:22:21;;;;;;;9.65;4.20;;;;;;;;;;5911090;28;20043;-70
2023/07/24 05:25:12;;;;;;;12.20;4.90;;;;;;;;;;5910825;28;20048;-70
2023/07/24 05:28:03;;;;;;;9.18;4.65;;;;;;;;;;5911002;28;20507;-71
2023/07/24 05:30:54;;;;;;;6.07;3.65;;;;;;;;;;5911504;28;20405;-68
2023/07/24 05:33:45;;;;;;;8.05;4.30;;;;;;;;;;5911546;28;20040;-70
2023/07/24 05:36:36;;;;;;;5.63;3.53;;;;;;;;;;5915733;28;20044;-70
2023/07/24 05:39:26;;;;;;;8.13;3.15;;;;;;;;;;5915631;28;20043;-69
2023/07/24 05:42:17;;;;;;;10.20;3.75;;;;;;;;;;5915621;28;20055;-69
2023/07/24 05:45:09;;;;;;;7.32;3.90;;;;;;;;;;5915467;28;20488;-69
2023/07/24 05:48:00;;;;;;;7.43;3.42;;;;;;;;;;5914653;28;20430;-70
2023/07/24 05:50:50;;;;;;;5.57;3.33;;;;;;;;;;5915483;28;20385;-70
2023/07/24 05:53:41;;;;;;;7.93;3.83;;;;;;;;;;5915201;28;20036;-69
2023/07/24 05:56:32;;;;;;;6.68;3.10;;;;;;;;;;5915270;28;20537;-70
2023/07/24 05:59:23;;;;;;;6.15;3.10;;;;;;;;;;5913867;28;20056;-70
2023/07/24 06:02:14;;;;;;;4.65;2.83;;;;;;;;;;5915124;28;20045;-69
2023/07/24 06:05:05;;;;;;;5.55;2.78;;;;;;;;;;5914988;28;20054;-70
2023/07/24 06:07:56;;;;;;;13.38;3.63;;;;;;;;;;5915570;28;20040;-70
2023/07/24 06:10:48;;;;;;;7.93;3.38;;;;;;;;;;5914743;28;20051;-70
2023/07/24 06:13:39;;;;;;;8.30;3.00;;;;;;;;;;5913312;28;20041;-69
2023/07/24 06:16:30;;;;;;;5.60;2.80;;;;;;;;;;5914733;28;20041;-70
2023/07/24 06:19:21;;;;;;;6.85;3.85;;;;;;;;;;5914667;28;20071;-70
2023/07/24 06:22:12;;;;;;;4.97;2.80;;;;;;;;;;5914517;28;20182;-69
2023/07/24 06:25:03;;;;;;;4.43;2.50;;;;;;;;;;5914419;28;20506;-71
2023/07/24 06:27:54;;;;;;;6.22;3.15;;;;;;;;;;5914890;28;20147;-70
2023/07/24 06:30:45;;;;;;;5.88;2.35;;;;;;;;;;5914276;28;20051;-70
2023/07/24 06:33:35;;;;;;;8.82;3.20;;;;;;;;;;5914251;28;20045;-70
2023/07/24 06:36:26;;;;;;;5.03;2.72;;;;;;;;;;5914214;28;20041;-70
2023/07/24 06:39:17;;;;;;;6.38;2.97;;;;;;;;;;5914171;28;20102;-70
2023/07/24 06:42:08;;;;;;;6.25;2.63;;;;;;;;;;5914037;28;20044;-70
2023/07/24 06:44:59;;;;;;;6.20;2.80;;;;;;;;;;5913067;28;20129;-70
2023/07/24 06:47:50;;;;;;;5.97;2.80;;;;;;;;;;5912770;28;20129;-71
2023/07/24 06:50:41;;;;;;;6.93;2.85;;;;;;;;;;5913877;28;20389;-71
2023/07/24 06:53:32;;;;;;;4.25;2.67;;;;;;;;;;5912508;28;20506;-71
2023/07/24 06:56:22;;;;;;;5.35;3.00;;;;;;;;;;5913489;28;20048;-71
2023/07/24 06:59:13;;;;;;;8.68;3.10;;;;;;;;;;5913304;28;20052;-70
2023/07/24 07:02:04;;;;;;;7.93;2.72;;;;;;;;;;5913428;28;20483;-70
2023/07/24 07:04:55;;;;;;;8.15;2.85;;;;;;;;;;5913698;28;20170;-71
2023/07/24 07:07:45;;;;;;;4.50;2.70;;;;;;;;;;5913432;28;20047;-70
2023/07/24 07:10:36;;;;;;;6.05;3.28;;;;;;;;;;5913292;28;20119;-71
2023/07/24 07:13:28;;;;;;;4.32;2.42;;;;;;;;;;5913159;28;20556;-70
2023/07/24 07:16:19;;;;;;;6.47;2.60;;;;;;;;;;5913100;28;20072;-71
2023/07/24 07:19:10;;;;;;;5.35;2.70;;;;;;;;;;5913157;28;20045;-72
2023/07/24 07:22:00;;;;;;;6.03;2.58;;;;;;;;;;5913719;28;20052;-71
2023/07/24 07:24:51;;;;;;;4.88;2.85;;;;;;;;;;5913266;28;20040;-71
2023/07/24 07:27:42;;;;;;;6.10;3.35;;;;;;;;;;5913104;28;20118;-71
2023/07/24 07:30:33;;;;;;;4.60;2.40;;;;;;;;;;5912832;28;20041;-71
2023/07/24 07:33:24;;;;;;;4.38;2.72;;;;;;;;;;5912925;28;20055;-71
2023/07/24 07:36:15;;;;;;;4.75;2.90;;;;;;;;;;5911594;28;20127;-70
2023/07/24 07:39:06;;;;;;;8.10;2.70;;;;;;;;;;5912898;28;20045;-71
2023/07/24 07:41:57;;;;;;;3.45;2.38;;;;;;;;;;5913253;28;20115;-71
2023/07/24 07:45:07;;;;;;;7.25;2.40;;;;;;;;;;5912285;28;20048;-72
2023/07/24 07:47:58;;;;;;;4.28;2.47;;;;;;;;;;5913312;28;20396;-71
2023/07/24 07:50:52;;;;;;;3.42;2.20;;;;;;;;;;5912556;28;20051;-71
2023/07/24 07:53:43;;;;;;;5.15;2.97;;;;;;;;;;5911223;28;20117;-70
2023/07/24 07:56:33;;;;;;;3.70;2.30;;;;;;;;;;5912080;28;20036;-70
2023/07/24 07:59:24;;;;;;;5.35;2.22;;;;;;;;;;5912573;28;20044;-71
2023/07/24 08:02:15;;;;;;;6.03;2.60;;;;;;;;;;5911879;28;20131;-71
2023/07/24 08:05:11;;;;;;;4.75;2.53;;;;;;;;;;5912029;28;20051;-72
2023/07/24 08:08:10;;;;;;;6.85;2.60;;;;;;;;;;5911098;28;20076;-71
2023/07/24 08:11:07;;;;;;;5.07;2.80;;;;;;;;;;5912320;28;20510;-73
2023/07/24 08:13:58;;;;;;;4.20;2.50;;;;;;;;;;5911435;28;20188;-71
2023/07/24 08:16:49;;;;;;;4.45;2.47;;;;;;;;;;5912145;28;20055;-71
2023/07/24 08:19:40;;;;;;;8.60;3.00;;;;;;;;;;5910700;28;20051;-70
2023/07/24 08:22:31;;;;;;;6.60;2.78;;;;;;;;;;5910623;28;20432;-71
2023/07/24 08:25:22;;;;;;;4.57;2.70;;;;;;;;;;5911528;28;20048;-72
2023/07/24 08:28:13;;;;;;;3.72;2.75;;;;;;;;;;5911711;28;20051;-72
2023/07/24 08:31:03;;;;;;;6.68;2.85;;;;;;;;;;5911764;28;20045;-72
2023/07/24 08:33:57;;;;;;;4.57;2.40;;;;;;;;;;5911026;28;20455;-70
2023/07/24 08:36:47;;;;;;;6.78;2.63;;;;;;;;;;5910255;28;20036;-70
2023/07/24 08:39:38;;;;;;;5.88;2.60;;;;;;;;;;5910241;28;20467;-72
2023/07/24 08:42:30;;;;;;;5.40;2.92;;;;;;;;;;5911463;28;20048;-71
2023/07/24 08:45:23;;;;;;;3.35;2.72;;;;;;;;;;5893479;28;20048;-71
2023/07/24 08:48:14;;;;;;;6.85;2.92;;;;;;;;;;5911499;28;20048;-72
2023/07/24 08:51:07;;;;;;;13.18;2.53;;;;;;;;;;5911405;28;20048;-72
2023/07/24 08:53:58;;;;;;;4.18;2.65;;;;;;;;;;5910551;28;20044;-72
2023/07/24 08:56:50;;;;;;;9.20;2.65;;;;;;;;;;5911060;28;20048;-72
2023/07/24 08:59:40;;;;;;;4.95;2.88;;;;;;;;;;5911125;28;20089;-71
2023/07/24 09:02:35;;;;;;;3.85;2.70;;;;;;;;;;5910009;28;20044;-73
2023/07/24 09:05:26;;;;;;;4.53;2.40;;;;;;;;;;5909636;28;20037;-72
2023/07/24 09:08:32;;;;;;;4.90;2.50;;;;;;;;;;5910163;28;20048;-71
2023/07/24 09:11:22;;;;;;;4.05;2.78;;;;;;;;;;5910915;28;20547;-71
2023/07/24 09:14:31;;;;;;;5.55;2.60;;;;;;;;;;5910992;28;20391;-72
2023/07/24 09:17:22;;;;;;;5.72;2.67;;;;;;;;;;5911083;28;20042;-72
2023/07/24 09:20:13;;;;;;;8.73;2.83;;;;;;;;;;5911023;28;20052;-71
2023/07/24 09:23:04;;;;;;;4.43;2.80;;;;;;;;;;5911025;28;20041;-71
2023/07/24 09:26:06;;;;;;;5.70;3.00;;;;;;;;;;5909496;28;20048;-71
2023/07/24 09:28:57;;;;;;;5.25;2.70;;;;;;;;;;5910154;28;20446;-72
2023/07/24 09:31:48;;;;;;;7.13;2.97;;;;;;;;;;5910935;28;20044;-71
2023/07/24 09:34:42;;;;;;;6.32;3.50;;;;;;;;;;5910780;28;20411;-72
2023/07/24 09:37:34;;;;;;;8.02;3.38;;;;;;;;;;5910606;28;20086;-72
2023/07/24 09:40:25;;;;;;;4.55;2.92;;;;;;;;;;5909366;28;20407;-71
2023/07/24 09:43:24;;;;;;;5.50;2.88;;;;;;;;;;5910709;28;20040;-71
2023/07/24 09:46:29;;;;;;;4.18;2.85;;;;;;;;;;5909445;28;20041;-71
2023/07/24 09:49:21;;;;;;;5.53;2.90;;;;;;;;;;5910537;28;20123;-73
2023/07/24 09:52:14;;;;;;;6.10;2.67;;;;;;;;;;5910524;28;20053;-71
2023/07/24 09:55:19;;;;;;;5.43;3.15;;;;;;;;;;5909278;28;20044;-72
2023/07/24 09:58:11;;;;;;;5.45;2.78;;;;;;;;;;5909193;28;20048;-71
2023/07/24 10:01:06;;;;;;;6.35;2.55;;;;;;;;;;5909287;28;20487;-71
2023/07/24 10:03:58;;;;;;;8.85;3.65;;;;;;;;;;5909545;28;20102;-71
2023/07/24 10:06:50;;;;;;;4.90;3.03;;;;;;;;;;5910394;28;20055;-71
2023/07/24 10:09:44;;;;;;;4.93;3.38;;;;;;;;;;5910298;28;20046;-71
2023/07/24 10:12:36;;;;;;;4.53;3.20;;;;;;;;;;5908984;28;20068;-71
2023/07/24 10:15:28;;;;;;;11.68;4.00;;;;;;;;;;5908848;28;20040;-71
2023/07/24 10:18:29;;;;;;;5.47;3.45;;;;;;;;;;5908913;28;20049;-72
2023/07/24 10:21:28;;;;;;;5.78;2.83;;;;;;;;;;5913242;28;20055;-71
2023/07/24 10:24:23;;;;;;;5.15;3.00;;;;;;;;;;5913036;28;20048;-71
2023/07/24 10:27:31;;;;;;;10.43;3.47;;;;;;;;;;5914482;28;20403;-72
2023/07/24 10:30:29;;;;;;;6.20;3.17;;;;;;;;;;5914405;28;20175;-71
2023/07/24 10:33:29;;;;;;;6.25;3.33;;;;;;;;;;5914480;28;20399;-71
2023/07/24 10:36:22;;;;;;;4.95;3.08;;;;;;;;;;5914176;28;20051;-71
2023/07/24 10:39:15;;;;;;;6.97;3.08;;;;;;;;;;5912855;28;20040;-72
2023/07/24 10:42:09;;;;;;;16.42;3.17;;;;;;;;;;5912966;28;20044;-71
2023/07/24 10:45:07;;;;;;;4.20;3.10;;;;;;;;;;5896793;28;20048;-71
2023/07/24 10:47:58;;;;;;;58.75;2.97;;;;;;;;;;5914392;28;20118;-71
2023/07/24 10:50:51;;;;;;;1.85;0.98;;;;;;;;;;5914015;28;20044;-71
2023/07/24 10:53:49;;;;;;;1.75;0.45;;;;;;;;;;5913951;28;20178;-72
2023/07/24 10:56:40;;;;;;;1.55;0.60;;;;;;;;;;5912461;28;20041;-72
2023/07/24 10:59:40;;;;;;;2.88;0.70;;;;;;;;;;5913878;28;20044;-72
2023/07/24 11:02:31;;;;;;;11.00;1.85;;;;;;;;;;5913718;28;20040;-72
2023/07/24 11:05:23;;;;;;;4.32;1.67;;;;;;;;;;5913645;28;20461;-70
2023/07/24 11:08:16;;;;;;;1.90;1.05;;;;;;;;;;5912274;28;20443;-71
2023/07/24 11:11:08;;;;;;;2.97;1.35;;;;;;;;;;5896033;28;20045;-71
2023/07/24 11:14:00;;;;;;;2.67;0.70;;;;;;;;;;5913969;28;20048;-72
2023/07/24 11:16:51;;;;;;;2.10;1.17;;;;;;;;;;5912218;28;20182;-71
2023/07/24 11:19:42;;;;;;;3.88;0.95;;;;;;;;;;5911973;28;20049;-70
2023/07/24 11:22:33;;;;;;;4.10;1.00;;;;;;;;;;5913199;28;20063;-70
2023/07/24 11:25:24;;;;;;;2.83;1.48;;;;;;;;;;5913077;28;20040;-71
2023/07/24 11:28:15;;;;;;;1.35;0.88;;;;;;;;;;5913131;28;20043;-69
2023/07/24 11:31:05;;;;;;;1.50;0.63;;;;;;;;;;5912268;28;20056;-70
2023/07/24 11:33:57;;;;;;;1.15;0.68;;;;;;;;;;5913339;28;20044;-71
2023/07/24 11:36:49;;;;;;;2.95;1.15;;;;;;;;;;5913018;28;20055;-70
2023/07/24 11:39:39;;;;;;;1.63;0.88;;;;;;;;;;5911534;28;20047;-70
2023/07/24 11:42:30;;;;;;;1.83;0.80;;;;;;;;;;5912739;28;20041;-69
2023/07/24 11:45:21;;;;;;;3.75;1.92;;;;;;;;;;5912630;28;20074;-71
2023/07/24 11:48:12;;;;;;;4.07;1.20;;;;;;;;;;5912642;28;20048;-71
2023/07/24 11:51:03;;;;;;;1.65;0.90;;;;;;;;;;5912670;28;20578;-70
2023/07/24 11:54:08;;;;;;;2.30;1.05;;;;;;;;;;5912921;28;20479;-71
2023/07/24 11:56:59;;;;;;;1.55;0.80;;;;;;;;;;5911494;28;20124;-71
2023/07/24 11:59:50;;;;;;;2.65;0.95;;;;;;;;;;5912852;28;20519;-72
2023/07/24 12:02:41;;;;;;;1.80;1.13;;;;;;;;;;5912537;28;20048;-70
2023/07/24 12:05:43;;;;;;;2.05;0.90;;;;;;;;;;5912526;28;20181;-70
2023/07/24 12:08:36;;;;;;;1.98;1.63;;;;;;;;;;5912339;28;20479;-71
2023/07/24 12:11:31;;;;;;;1.83;1.13;;;;;;;;;;5912391;28;20123;-70
2023/07/24 12:14:22;;;;;;;2.33;1.00;;;;;;;;;;5912238;28;20109;-70
2023/07/24 12:17:19;;;;;;;1.60;0.80;;;;;;;;;;5912017;28;20052;-70
2023/07/24 12:20:11;;;;;;;2.22;0.75;;;;;;;;;;5898161;28;20049;-71
2023/07/24 12:23:02;;;;;;;1.27;0.77;;;;;;;;;;5897059;28;20051;-72
2023/07/24 12:25:53;;;;;;;3.58;1.45;;;;;;;;;;5899197;28;20056;-68
2023/07/24 12:28:43;;;;;;;2.35;1.13;;;;;;;;;;5901503;28;20041;-68
2023/07/24 12:31:34;;;;;;;3.35;1.15;;;;;;;;;;5911475;28;20499;-69
2023/07/24 12:34:26;;;;;;;2.80;1.42;;;;;;;;;;5910734;28;20045;-68
2023/07/24 12:37:18;;;;;;;2.75;1.38;;;;;;;;;;5911158;28;20480;-68
2023/07/24 12:40:09;;;;;;;4.55;1.55;;;;;;;;;;5911202;28;20056;-68
2023/07/24 12:43:00;;;;;;;2.08;1.27;;;;;;;;;;5911423;28;20044;-68
2023/07/24 12:45:51;;;;;;;3.70;1.58;;;;;;;;;;5910616;28;20090;-68
2023/07/24 12:48:41;;;;;;;3.47;1.58;;;;;;;;;;5910867;28;20045;-68
2023/07/24 12:51:32;;;;;;;1.52;1.27;;;;;;;;;;5911252;28;20040;-68
2023/07/24 12:54:23;;;;;;;1.70;0.80;;;;;;;;;;5910166;28;20040;-70
2023/07/24 12:57:34;;;;;;;4.00;1.10;;;;;;;;;;5909380;28;20115;-70
2023/07/24 13:00:25;;;;;;;2.72;1.48;;;;;;;;;;5910665;28;20091;-71
2023/07/24 13:03:16;;;;;;;1.92;0.98;;;;;;;;;;5910644;28;20036;-71
2023/07/24 13:06:07;;;;;;;3.17;1.27;;;;;;;;;;5910286;28;20055;-71
2023/07/24 13:08:58;;;;;;;2.63;1.35;;;;;;;;;;5909630;28;20051;-70
2023/07/24 13:11:51;;;;;;;5.97;1.15;;;;;;;;;;5909423;28;20037;-71
2023/07/24 13:14:42;;;;;;;4.18;1.88;;;;;;;;;;5908788;28;20387;-71
2023/07/24 13:17:35;;;;;;;1.73;1.00;;;;;;;;;;5910573;28;20037;-70
2023/07/24 13:20:25;;;;;;;5.43;1.15;;;;;;;;;;5910294;28;20399;-71
2023/07/24 13:23:16;;;;;;;9.18;2.13;;;;;;;;;;5910498;28;20384;-72
2023/07/24 13:26:10;;;;;;;4.50;1.30;;;;;;;;;;5910036;28;20055;-69
2023/07/24 13:29:03;;;;;;;2.10;1.48;;;;;;;;;;5909976;28;20147;-72
2023/07/24 13:31:54;;;;;;;2.28;0.80;;;;;;;;;;5910481;28;20053;-71
2023/07/24 13:34:45;;;;;;;2.63;1.08;;;;;;;;;;5909481;28;20170;-70
2023/07/24 13:37:35;;;;;;;1.55;1.13;;;;;;;;;;5910283;28;20063;-70
2023/07/24 13:40:27;;;;;;;2.35;1.45;;;;;;;;;;5909925;28;20044;-70
2023/07/24 13:43:18;;;;;;;2.65;0.98;;;;;;;;;;5910023;28;20060;-70
2023/07/24 13:46:09;;;;;;;3.83;0.98;;;;;;;;;;5901898;28;20392;-71
2023/07/24 13:49:00;;;;;;;2.60;1.60;;;;;;;;;;5898709;28;20479;-71
2023/07/24 13:51:51;;;;;;;2.45;1.30;;;;;;;;;;5897195;28;20040;-70
2023/07/24 13:54:41;;;;;;;2.78;1.10;;;;;;;;;;5898112;28;21791;-71
2023/07/24 13:57:32;;;;;;;1.92;0.95;;;;;;;;;;5898587;28;20053;-70
2023/07/24 14:00:23;;;;;;;1.45;1.10;;;;;;;;;;5895853;28;20037;-70
2023/07/24 14:03:14;;;;;;;2.40;1.08;;;;;;;;;;5909764;28;20139;-70
2023/07/24 14:06:05;;;;;;;2.47;1.13;;;;;;;;;;5902841;28;20048;-71
2023/07/24 14:08:56;;;;;;;3.33;1.48;;;;;;;;;;5910332;28;20141;-70
2023/07/24 14:11:46;;;;;;;2.85;1.00;;;;;;;;;;5902746;28;20052;-71
2023/07/24 14:14:37;;;;;;;3.47;1.15;;;;;;;;;;5903931;28;20041;-69
2023/07/24 14:17:28;;;;;;;2.50;1.00;;;;;;;;;;5909602;28;20079;-72
2023/07/24 14:20:19;;;;;;;2.72;0.90;;;;;;;;;;5897930;28;20121;-70
2023/07/24 14:23:09;;;;;;;2.38;1.13;;;;;;;;;;5895214;28;20510;-70
2023/07/24 14:26:00;;;;;;;2.03;1.38;;;;;;;;;;5898419;28;20102;-69
2023/07/24 14:28:51;;;;;;;2.25;1.20;;;;;;;;;;5901092;28;20067;-71
2023/07/24 14:31:45;;;;;;;2.45;1.20;;;;;;;;;;5901291;28;20483;-72
2023/07/24 14:34:36;;;;;;;3.03;1.05;;;;;;;;;;5898968;28;20051;-70
2023/07/24 14:37:27;;;;;;;3.75;1.50;;;;;;;;;;5898417;28;20487;-70
2023/07/24 14:40:18;;;;;;;1.30;1.15;;;;;;;;;;5900874;28;20042;-70
2023/07/24 14:43:09;;;;;;;2.42;1.23;;;;;;;;;;5901080;28;20059;-70
2023/07/24 14:46:00;;;;;;;2.60;1.02;;;;;;;;;;5902935;28;20131;-70
2023/07/24 14:48:51;;;;;;;1.23;1.13;;;;;;;;;;5904752;28;20061;-71
2023/07/24 14:51:41;;;;;;;3.17;0.85;;;;;;;;;;5901844;28;20048;-71
2023/07/24 14:54:32;;;;;;;2.85;0.95;;;;;;;;;;5902523;28;20470;-70
2023/07/24 14:57:27;;;;;;;2.85;1.48;;;;;;;;;;5902804;28;20487;-70
2023/07/24 15:00:18;;;;;;;1.55;1.08;;;;;;;;;;5904170;28;20045;-70
2023/07/24 15:03:08;;;;;;;3.28;1.10;;;;;;;;;;5894326;28;20037;-70
2023/07/24 15:06:03;;;;;;;3.88;1.33;;;;;;;;;;5896347;28;20403;-70
2023/07/24 15:08:56;;;;;;;2.05;1.02;;;;;;;;;;5900517;28;20126;-70
2023/07/24 15:11:46;;;;;;;5.15;1.50;;;;;;;;;;5893412;28;20048;-70
2023/07/24 15:14:37;;;;;;;3.55;1.58;;;;;;;;;;5900033;28;20056;-70
2023/07/24 15:17:28;;;;;;;6.53;1.08;;;;;;;;;;5900789;28;20364;-70
2023/07/24 15:20:19;;;;;;;1.77;1.33;;;;;;;;;;5900061;28;20036;-70
2023/07/24 15:23:10;;;;;;;1.23;0.75;;;;;;;;;;5900566;28;20395;-69
2023/07/24 15:26:01;;;;;;;12.63;1.17;;;;;;;;;;5899488;28;20055;-72
2023/07/24 15:28:52;;;;;;;2.17;1.35;;;;;;;;;;5900536;28;20045;-70
2023/07/24 15:31:42;;;;;;;4.30;1.83;;;;;;;;;;5901498;28;20058;-70
2023/07/24 15:34:33;;;;;;;2.60;1.00;;;;;;;;;;5898886;28;20049;-70
2023/07/24 15:37:32;;;;;;;5.47;1.23;;;;;;;;;;5901002;28;20041;-69
2023/07/24 15:40:22;;;;;;;1.60;1.00;;;;;;;;;;5910338;28;20048;-70
2023/07/24 15:43:13;;;;;;;2.05;1.55;;;;;;;;;;5889334;28;20045;-70
2023/07/24 17:44:47;;;;;;;2.85;1.90;;;;;;;;;;5885654;27;20448;-76
2023/07/24 17:47:38;;;;;;;1.30;1.20;;;;;;;;;;5860383;28;20049;-77
2023/07/24 17:50:29;;;;;;;2.92;2.42;;;;;;;;;;5836487;28;20126;-77
2023/07/24 17:53:20;;;;;;;3.75;1.95;;;;;;;;;;5895439;28;20060;-76
2023/07/24 17:56:11;;;;;;;2.20;1.25;;;;;;;;;;5861685;28;20056;-77
2023/07/24 17:59:01;;;;;;;2.72;1.90;;;;;;;;;;5859746;28;20061;-77
2023/07/24 18:01:52;;;;;;;7.60;2.15;;;;;;;;;;5860254;28;20044;-77
2023/07/24 18:04:43;;;;;;;4.47;2.35;;;;;;;;;;5850404;28;20049;-76
2023/07/24 18:07:34;;;;;;;1.90;1.50;;;;;;;;;;5836681;28;20049;-78
2023/07/24 18:10:25;;;;;;;2.47;2.28;;;;;;;;;;5836513;28;20366;-74
2023/07/24 18:13:16;;;;;;;4.20;2.80;;;;;;;;;;5858502;28;20540;-76
2023/07/24 18:16:07;;;;;;;6.38;4.63;;;;;;;;;;5838710;28;20125;-76
2023/07/24 18:18:58;;;;;;;5.90;3.33;;;;;;;;;;5835567;28;20481;-76
2023/07/24 18:21:48;;;;;;;7.28;3.80;;;;;;;;;;5846063;28;20045;-76
2023/07/24 18:24:40;;;;;;;2.42;1.92;;;;;;;;;;5850104;28;20042;-75
2023/07/24 18:27:31;;;;;;;2.83;2.13;;;;;;;;;;5836554;28;20038;-76
2023/07/24 18:30:28;;;;;;;3.35;1.50;;;;;;;;;;5836275;28;20405;-76
2023/07/24 18:33:19;;;;;;;2.30;1.95;;;;;;;;;;5857794;28;20072;-76
2023/07/24 18:36:10;;;;;;;3.15;1.13;;;;;;;;;;5818111;28;20097;-76
2023/07/24 18:39:00;;;;;;;2.13;1.50;;;;;;;;;;5862941;28;20041;-76
2023/07/24 18:44:08;;;;;;;3.05;1.95;;;;;;;;;;5830963;27;20397;-74
2023/07/24 18:46:59;;;;;;;8.10;1.60;;;;;;;;;;5870255;28;20045;-74
2023/07/24 18:49:49;;;;;;;6.82;1.85;;;;;;;;;;5896745;28;20178;-75
2023/07/24 18:52:40;;;;;;;2.53;1.88;;;;;;;;;;5898069;28;20045;-75
2023/07/24 18:55:31;;;;;;;2.53;2.25;;;;;;;;;;5891035;28;20045;-74
2023/07/24 18:58:22;;;;;;;3.47;1.90;;;;;;;;;;5884107;28;20053;-75
2023/07/24 19:01:13;;;;;;;1.73;1.48;;;;;;;;;;5883004;28;20045;-74
2023/07/24 19:04:04;;;;;;;1.42;1.27;;;;;;;;;;5883517;28;20049;-75
2023/07/24 19:06:54;;;;;;;13.43;2.60;;;;;;;;;;5884060;28;20073;-74
2023/07/24 19:09:45;;;;;;;2.15;1.95;;;;;;;;;;5883515;28;20037;-75
2023/07/24 19:12:39;;;;;;;7.80;2.38;;;;;;;;;;5883151;28;20187;-75